createdAt,value
2018-12-06T00:01:48.807Z,12.97
2018-12-06T00:04:17.284Z,12.80
2018-12-06T00:06:45.615Z,13.30
2018-12-06T00:09:13.973Z,12.33
2018-12-06T00:11:42.357Z,13.20
2018-12-06T00:14:10.685Z,13.03
2018-12-06T00:16:39.549Z,12.37
2018-12-06T00:19:10.355Z,13.03
2018-12-06T00:21:38.896Z,12.77
2018-12-06T00:24:07.544Z,12.20
2018-12-06T00:26:35.858Z,13.07
2018-12-06T00:29:04.290Z,13.13
2018-12-06T00:31:32.597Z,12.63
2018-12-06T00:34:01.238Z,13.10
2018-12-06T00:36:29.612Z,12.47
2018-12-06T00:38:58.684Z,12.70
2018-12-06T00:41:27.113Z,12.67
2018-12-06T00:43:56.120Z,13.47
2018-12-06T00:46:24.473Z,12.60
2018-12-06T00:48:52.844Z,12.40
2018-12-06T00:51:21.228Z,12.27
2018-12-06T00:53:49.598Z,12.63
2018-12-06T00:56:17.932Z,11.63
2018-12-06T00:58:46.362Z,12.27
2018-12-06T01:01:14.709Z,12.93
2018-12-06T01:03:43.124Z,12.70
2018-12-06T01:06:11.499Z,11.83
2018-12-06T01:08:39.769Z,12.07
2018-12-06T01:11:08.088Z,11.63
2018-12-06T01:13:36.382Z,12.07
2018-12-06T01:16:04.687Z,11.87
2018-12-06T01:18:33.008Z,12.20
2018-12-06T01:21:01.508Z,12.20
2018-12-06T01:23:29.788Z,12.33
2018-12-06T01:25:58.302Z,12.47
2018-12-06T01:28:26.636Z,12.57
2018-12-06T01:30:54.923Z,13.93
2018-12-06T01:33:23.264Z,14.40
2018-12-06T01:35:51.632Z,14.03
2018-12-06T01:38:20.038Z,14.33
2018-12-06T01:40:48.426Z,14.10
2018-12-06T01:43:16.883Z,14.03
2018-12-06T01:45:45.195Z,14.03
2018-12-06T01:48:13.621Z,14.23
2018-12-06T01:50:41.911Z,14.87
2018-12-06T01:53:10.237Z,15.00
2018-12-06T01:55:38.545Z,13.83
2018-12-06T01:58:06.940Z,15.47
2018-12-06T02:00:35.258Z,15.37
2018-12-06T02:03:03.717Z,14.33
2018-12-06T02:05:32.096Z,15.57
2018-12-06T02:08:00.391Z,14.87
2018-12-06T02:10:28.781Z,15.63
2018-12-06T02:12:57.131Z,16.30
2018-12-06T02:15:25.594Z,15.33
2018-12-06T02:17:54.193Z,15.40
2018-12-06T02:20:22.720Z,15.50
2018-12-06T02:22:51.041Z,15.13
2018-12-06T02:25:19.339Z,15.17
2018-12-06T02:27:47.645Z,15.97
2018-12-06T02:30:15.969Z,15.80
2018-12-06T02:32:44.241Z,14.80
2018-12-06T02:35:16.612Z,14.97
2018-12-06T02:37:45.009Z,15.13
2018-12-06T02:40:13.338Z,15.23
2018-12-06T02:42:41.819Z,15.07
2018-12-06T02:45:10.539Z,15.07
2018-12-06T02:47:38.841Z,16.10
2018-12-06T02:50:07.337Z,15.67
2018-12-06T02:52:35.760Z,14.23
2018-12-06T02:55:04.320Z,15.17
2018-12-06T02:57:32.662Z,14.27
2018-12-06T03:00:01.019Z,15.70
2018-12-06T03:02:29.541Z,15.20
2018-12-06T03:04:57.860Z,15.53
2018-12-06T03:07:26.438Z,15.30
2018-12-06T03:09:55.123Z,14.93
2018-12-06T03:12:23.597Z,14.57
2018-12-06T03:14:51.919Z,15.33
2018-12-06T03:17:20.223Z,15.30
2018-12-06T03:19:48.505Z,14.27
2018-12-06T03:22:16.805Z,14.63
2018-12-06T03:24:45.091Z,14.30
2018-12-06T03:27:13.882Z,14.10
2018-12-06T03:29:42.343Z,15.17
2018-12-06T03:32:11.496Z,14.17
2018-12-06T03:34:39.777Z,13.53
2018-12-06T03:37:08.293Z,14.40
2018-12-06T03:39:36.604Z,13.77
2018-12-06T03:42:04.930Z,13.90
2018-12-06T03:47:38.251Z,13.53
2018-12-06T03:50:06.705Z,12.67
2018-12-06T03:52:35.630Z,13.43
2018-12-06T03:55:04.085Z,13.90
2018-12-06T03:57:32.398Z,14.43
2018-12-06T04:00:00.784Z,13.70
2018-12-06T04:02:29.116Z,14.30
2018-12-06T04:04:57.564Z,13.37
2018-12-06T04:07:25.967Z,13.73
2018-12-06T04:09:54.285Z,13.23
2018-12-06T04:12:22.599Z,13.90
2018-12-06T04:14:51.018Z,14.03
2018-12-06T04:17:19.404Z,14.67
2018-12-06T04:19:47.704Z,15.07
2018-12-06T04:22:16.150Z,15.03
2018-12-06T04:24:44.540Z,15.07
2018-12-06T04:27:12.851Z,14.40
2018-12-06T04:29:41.173Z,15.83
2018-12-06T04:32:09.464Z,16.10
2018-12-06T04:34:37.797Z,15.33
2018-12-06T04:37:06.083Z,15.87
2018-12-06T04:39:34.432Z,15.37
2018-12-06T04:42:02.748Z,16.80
2018-12-06T04:44:31.297Z,16.90
2018-12-06T04:46:59.802Z,15.30
2018-12-06T04:49:28.204Z,15.97
2018-12-06T04:51:56.562Z,17.33
2018-12-06T04:54:24.892Z,17.40
2018-12-06T04:56:53.212Z,18.37
2018-12-06T04:59:21.554Z,18.50
2018-12-06T05:01:49.846Z,17.93
2018-12-06T05:04:18.555Z,17.47
2018-12-06T05:06:46.852Z,18.03
2018-12-06T05:09:15.153Z,19.60
2018-12-06T05:11:43.457Z,18.87
2018-12-06T05:14:11.748Z,18.10
2018-12-06T05:16:40.337Z,17.77
2018-12-06T05:19:09.108Z,17.63
2018-12-06T05:21:37.554Z,17.93
2018-12-06T05:24:05.866Z,18.77
2018-12-06T05:26:34.231Z,18.30
2018-12-06T05:29:02.847Z,18.43
2018-12-06T05:31:31.185Z,18.27
2018-12-06T05:33:59.483Z,19.03
2018-12-06T05:36:27.764Z,17.80
2018-12-06T05:38:56.078Z,17.53
2018-12-06T05:41:24.398Z,17.60
2018-12-06T05:43:52.721Z,17.80
2018-12-06T05:46:21.077Z,16.33
2018-12-06T05:48:49.376Z,16.60
2018-12-06T05:51:17.754Z,16.87
2018-12-06T05:53:46.080Z,17.13
2018-12-06T05:56:14.435Z,15.37
2018-12-06T05:58:42.881Z,16.67
2018-12-06T06:01:11.474Z,16.20
2018-12-06T06:03:40.452Z,17.13
2018-12-06T06:06:08.748Z,16.07
2018-12-06T06:08:37.343Z,16.57
2018-12-06T07:20:26.886Z,24.67
2018-12-06T07:22:55.256Z,23.87
2018-12-06T07:25:23.680Z,25.67
2018-12-06T07:27:52.780Z,24.30
2018-12-06T07:30:21.084Z,24.50
2018-12-06T07:32:49.448Z,26.17
2018-12-06T07:35:17.836Z,24.90
2018-12-06T07:37:46.937Z,26.00
2018-12-06T07:40:15.363Z,25.63
2018-12-06T07:42:43.709Z,26.00
2018-12-06T07:45:12.041Z,25.53
2018-12-06T07:47:40.393Z,25.90
2018-12-06T07:50:09.845Z,26.37
2018-12-06T07:52:38.221Z,25.97
2018-12-06T07:55:07.474Z,27.57
2018-12-06T07:57:36.494Z,26.80
2018-12-06T08:00:08.501Z,28.43
2018-12-06T08:02:36.993Z,27.63
2018-12-06T08:05:06.074Z,29.33
2018-12-06T08:07:34.619Z,27.73
2018-12-06T08:10:02.969Z,28.47
2018-12-06T08:12:31.384Z,28.50
2018-12-06T08:14:59.920Z,29.70
2018-12-06T08:17:28.228Z,30.23
2018-12-06T08:19:56.555Z,28.80
2018-12-06T08:22:24.944Z,29.63
2018-12-06T08:24:53.262Z,28.73
2018-12-06T08:27:21.558Z,27.30
2018-12-06T08:29:50.585Z,26.23
2018-12-06T08:32:18.900Z,24.27
2018-12-06T08:34:47.245Z,22.80
2018-12-06T08:37:15.573Z,20.97
2018-12-06T08:39:43.935Z,20.70
2018-12-06T08:42:12.283Z,20.37
2018-12-06T08:44:40.860Z,19.47
2018-12-06T08:47:09.201Z,17.83
2018-12-06T08:49:37.741Z,17.87
2018-12-06T08:52:06.140Z,17.73
2018-12-06T08:54:34.584Z,16.83
2018-12-06T08:57:03.085Z,16.73
2018-12-06T08:59:31.404Z,17.17
2018-12-06T09:01:59.989Z,17.13
2018-12-06T09:04:28.704Z,16.67
2018-12-06T09:06:57.131Z,17.50
2018-12-06T09:09:25.682Z,18.57
2018-12-06T09:11:54.279Z,18.47
2018-12-06T09:14:22.765Z,19.10
2018-12-06T09:16:51.183Z,19.73
2018-12-06T09:19:19.577Z,20.43
2018-12-06T09:21:47.924Z,21.57
2018-12-06T09:24:16.603Z,21.90
2018-12-06T09:26:45.077Z,23.20
2018-12-06T09:29:13.485Z,22.90
2018-12-06T09:31:42.469Z,24.80
2018-12-06T09:34:10.801Z,24.77
2018-12-06T09:36:39.317Z,24.77
2018-12-06T09:39:08.493Z,24.73
2018-12-06T09:41:37.672Z,25.20
2018-12-06T09:44:06.049Z,24.00
2018-12-06T09:46:34.575Z,25.00
2018-12-06T09:49:03.120Z,25.57
2018-12-06T09:51:31.504Z,24.40
2018-12-06T09:53:59.896Z,23.33
2018-12-06T09:56:28.288Z,22.23
2018-12-06T09:58:57.160Z,18.80
2018-12-06T10:01:25.629Z,21.87
2018-12-06T10:03:54.613Z,23.17
2018-12-06T10:06:22.931Z,23.27
2018-12-06T10:08:51.300Z,24.03
2018-12-06T10:11:19.620Z,25.53
2018-12-06T10:13:48.024Z,24.97
2018-12-06T10:16:16.358Z,25.27
2018-12-06T10:18:45.050Z,25.20
2018-12-06T10:21:13.332Z,27.43
2018-12-06T10:23:41.667Z,27.50
2018-12-06T10:26:10.047Z,27.00
2018-12-06T10:28:39.146Z,27.60
2018-12-06T10:31:07.582Z,26.23
2018-12-06T10:33:35.938Z,27.43
2018-12-06T10:36:04.275Z,26.17
2018-12-06T10:38:32.867Z,25.33
2018-12-06T10:41:01.193Z,27.27
2018-12-06T10:43:30.385Z,27.33
2018-12-06T10:45:58.729Z,27.50
2018-12-06T10:48:27.060Z,27.03
2018-12-06T10:54:17.052Z,27.70
2018-12-06T10:56:45.424Z,28.53
2018-12-06T10:59:13.774Z,27.33
2018-12-06T11:01:50.640Z,29.47
2018-12-06T11:04:19.153Z,28.60
2018-12-06T11:06:47.625Z,29.30
2018-12-06T11:09:16.239Z,28.87
2018-12-06T11:11:44.680Z,28.67
2018-12-06T11:14:13.055Z,29.73
2018-12-06T11:16:41.385Z,30.03
2018-12-06T11:19:09.757Z,29.30
2018-12-06T11:21:38.231Z,27.93
2018-12-06T11:24:06.547Z,29.03
2018-12-06T11:26:34.954Z,28.83
2018-12-06T11:29:03.396Z,27.27
2018-12-06T11:31:31.787Z,27.40
2018-12-06T11:34:00.647Z,27.37
2018-12-06T11:36:28.978Z,24.70
2018-12-06T11:38:57.347Z,22.37
2018-12-06T11:41:25.690Z,22.93
2018-12-06T11:43:54.184Z,22.83
2018-12-06T11:46:22.838Z,23.07
2018-12-06T11:48:51.500Z,22.37
2018-12-06T11:51:20.206Z,24.90
2018-12-06T11:53:48.604Z,28.23
2018-12-06T11:56:16.944Z,31.00
2018-12-06T11:58:45.312Z,28.87
2018-12-06T12:01:13.663Z,30.43
2018-12-06T12:03:42.797Z,29.53
2018-12-06T12:06:11.137Z,31.40
2018-12-06T12:08:39.599Z,30.00
2018-12-06T12:11:08.157Z,30.13
2018-12-06T12:13:36.594Z,28.27
2018-12-06T12:16:04.993Z,27.37
2018-12-06T12:18:33.382Z,26.37
2018-12-06T12:21:02.090Z,26.77
2018-12-06T12:23:30.553Z,27.40
2018-12-06T12:25:58.859Z,27.83
2018-12-06T12:28:27.236Z,25.70
2018-12-06T12:30:56.111Z,26.10
2018-12-06T12:33:24.542Z,24.93
2018-12-06T12:35:52.909Z,24.97
2018-12-06T12:38:21.779Z,24.00
2018-12-06T12:40:50.380Z,24.93
2018-12-06T12:43:18.719Z,24.50
2018-12-06T12:45:47.769Z,24.30
2018-12-06T12:48:16.085Z,25.10
2018-12-06T12:50:44.475Z,25.87
2018-12-06T12:53:13.356Z,24.97
2018-12-06T12:55:41.861Z,27.10
2018-12-06T12:58:10.887Z,26.43
2018-12-06T13:00:39.258Z,28.80
2018-12-06T13:03:07.565Z,26.17
2018-12-06T13:05:35.990Z,27.73
2018-12-06T13:08:04.314Z,27.50
2018-12-06T13:10:32.634Z,29.10
2018-12-06T13:13:01.782Z,27.67
2018-12-06T13:15:30.402Z,27.97
2018-12-06T13:17:59.697Z,27.93
2018-12-06T13:20:28.332Z,28.03
2018-12-06T13:22:57.112Z,28.83
2018-12-06T13:25:25.599Z,30.20
2018-12-06T13:27:53.976Z,27.80
2018-12-06T13:30:22.507Z,28.10
2018-12-06T13:32:50.967Z,28.57
2018-12-06T13:35:19.327Z,26.43
2018-12-06T13:37:47.741Z,25.40
2018-12-06T13:40:16.076Z,27.47
2018-12-06T13:42:44.443Z,27.53
2018-12-06T13:45:13.082Z,27.53
2018-12-06T13:47:41.542Z,25.97
2018-12-06T13:50:09.894Z,27.30
2018-12-06T13:52:38.212Z,26.73
2018-12-06T13:55:06.782Z,24.83
2018-12-06T13:57:35.424Z,25.37
2018-12-06T14:00:04.686Z,28.10
2018-12-06T14:02:33.002Z,26.47
2018-12-06T14:05:02.386Z,25.23
2018-12-06T14:07:31.578Z,25.43
2018-12-06T14:09:59.918Z,24.70
2018-12-06T14:12:28.255Z,27.57
2018-12-06T14:14:57.326Z,26.37
2018-12-06T14:17:26.543Z,26.43
2018-12-06T14:19:54.889Z,26.03
2018-12-06T14:22:23.972Z,26.40
2018-12-06T14:24:52.322Z,24.37
2018-12-06T14:27:20.738Z,26.23
2018-12-06T14:29:49.141Z,27.80
2018-12-06T14:32:17.678Z,27.23
2018-12-06T14:34:46.059Z,27.80
2018-12-06T14:37:14.423Z,29.10
2018-12-06T14:39:42.774Z,27.73
2018-12-06T14:42:11.107Z,28.30
2018-12-06T14:44:39.993Z,29.27
2018-12-06T14:47:08.467Z,30.60
2018-12-06T14:49:36.844Z,30.17
2018-12-06T14:52:05.628Z,30.70
2018-12-06T14:54:33.961Z,32.07
2018-12-06T14:57:02.332Z,31.17
2018-12-06T14:59:30.672Z,32.80
2018-12-06T15:01:59.015Z,32.33
2018-12-06T15:04:27.355Z,35.47
2018-12-06T15:06:55.744Z,34.37
2018-12-06T15:09:24.313Z,34.70
2018-12-06T15:11:52.658Z,34.33
2018-12-06T15:14:21.995Z,34.30
2018-12-06T15:16:50.517Z,34.80
2018-12-06T15:19:18.859Z,33.23
2018-12-06T15:21:47.208Z,33.10
2018-12-06T15:24:15.597Z,31.20
2018-12-06T15:26:50.112Z,35.03
2018-12-06T15:29:18.493Z,34.37
2018-12-06T15:31:47.503Z,35.50
2018-12-06T15:34:15.826Z,33.57
2018-12-06T15:36:44.133Z,32.70
2018-12-06T15:39:12.528Z,35.40
2018-12-06T15:41:41.582Z,33.27
2018-12-06T15:44:10.203Z,34.17
2018-12-06T15:46:38.655Z,31.73
2018-12-06T15:49:07.005Z,30.53
2018-12-06T15:51:35.319Z,31.77
2018-12-06T15:54:03.641Z,28.87
2018-12-06T15:56:32.071Z,27.17
2018-12-06T15:59:00.652Z,28.90
2018-12-06T16:01:29.310Z,28.20
2018-12-06T16:03:57.654Z,29.10
2018-12-06T16:06:26.032Z,27.47
2018-12-06T16:08:55.172Z,27.33
2018-12-06T16:11:23.548Z,26.83
2018-12-06T16:13:52.537Z,25.80
2018-12-06T16:16:20.893Z,23.03
2018-12-06T16:18:49.325Z,25.97
2018-12-06T16:21:17.801Z,24.07
2018-12-06T16:23:46.364Z,24.17
2018-12-06T16:26:14.846Z,24.07
2018-12-06T16:28:43.150Z,24.03
2018-12-06T16:31:12.514Z,22.77
2018-12-06T16:33:40.896Z,22.30
2018-12-06T16:36:09.611Z,23.43
2018-12-06T16:38:37.955Z,22.73
2018-12-06T16:41:06.305Z,23.57
2018-12-06T16:43:34.601Z,22.50
2018-12-06T16:46:03.698Z,23.43
2018-12-06T16:48:32.090Z,23.70
2018-12-06T16:51:00.986Z,23.63
2018-12-06T16:53:29.276Z,21.33
2018-12-06T16:55:57.601Z,22.77
2018-12-06T16:58:25.908Z,22.83
2018-12-06T17:00:54.281Z,23.73
2018-12-06T17:03:23.230Z,23.63
2018-12-06T17:05:51.807Z,23.47
2018-12-06T17:08:20.777Z,23.57
2018-12-06T17:10:49.072Z,23.67
2018-12-06T17:13:17.436Z,22.93
2018-12-06T17:15:45.775Z,23.53
2018-12-06T17:18:14.335Z,22.87
2018-12-06T17:20:42.850Z,22.20
2018-12-06T17:23:11.184Z,20.80
2018-12-06T17:25:39.495Z,20.40
2018-12-06T17:28:07.789Z,19.80
2018-12-06T17:30:36.127Z,20.67
2018-12-06T17:33:05.136Z,20.87
2018-12-06T17:35:33.498Z,21.33
2018-12-06T17:38:01.887Z,20.27
2018-12-06T17:40:30.458Z,21.03
2018-12-06T17:42:59.036Z,19.97
2018-12-06T17:45:27.423Z,23.23
2018-12-06T17:47:55.796Z,21.07
2018-12-06T17:50:24.173Z,21.83
2018-12-06T17:52:52.583Z,21.80
2018-12-06T17:55:20.963Z,20.20
2018-12-06T17:57:49.447Z,18.63
2018-12-06T18:00:17.911Z,20.97
2018-12-06T18:02:46.256Z,21.50
2018-12-06T18:07:49.257Z,21.33
2018-12-06T18:10:18.827Z,20.43
2018-12-06T18:12:47.185Z,20.47
2018-12-06T18:15:16.007Z,19.60
2018-12-06T18:17:44.417Z,18.70
2018-12-06T18:20:12.894Z,18.50
2018-12-06T18:22:41.246Z,19.70
2018-12-06T18:25:09.550Z,18.87
2018-12-06T18:27:38.131Z,19.03
2018-12-06T18:30:09.711Z,18.87
2018-12-06T18:32:38.127Z,19.37
2018-12-06T18:35:06.837Z,21.30
2018-12-06T18:37:35.167Z,19.30
2018-12-06T18:40:04.141Z,20.73
2018-12-06T18:42:32.512Z,19.63
2018-12-06T18:45:00.841Z,18.27
2018-12-06T18:47:29.191Z,19.67
2018-12-06T18:49:57.494Z,18.60
2018-12-06T18:52:25.828Z,17.43
2018-12-06T18:54:54.197Z,16.07
2018-12-06T18:57:22.869Z,18.07
2018-12-06T18:59:51.181Z,18.87
2018-12-06T19:02:19.803Z,19.30
2018-12-06T19:04:48.793Z,18.37
2018-12-06T19:07:17.108Z,20.20
2018-12-06T19:09:45.649Z,19.97
2018-12-06T19:12:14.577Z,18.97
2018-12-06T19:14:43.004Z,18.47
2018-12-06T19:17:11.964Z,17.97
2018-12-06T19:19:40.325Z,19.77
2018-12-06T19:22:08.625Z,19.20
2018-12-06T19:24:36.978Z,20.83
2018-12-06T19:27:05.921Z,18.33
2018-12-06T19:29:34.312Z,19.70
2018-12-06T19:32:02.624Z,19.70
2018-12-06T19:34:30.954Z,21.77
2018-12-06T19:36:59.639Z,22.03
2018-12-06T19:39:27.991Z,20.73
2018-12-06T19:41:56.395Z,21.77
2018-12-06T19:44:24.876Z,23.13
2018-12-06T19:46:53.744Z,20.93
2018-12-06T19:49:22.131Z,22.53
2018-12-06T19:51:50.922Z,21.33
2018-12-06T19:54:19.979Z,22.03
2018-12-06T19:56:48.375Z,25.37
2018-12-06T19:59:16.692Z,23.73
2018-12-06T20:01:45.189Z,23.43
2018-12-06T20:04:13.596Z,23.67
2018-12-06T20:06:41.976Z,24.47
2018-12-06T20:09:10.408Z,22.63
2018-12-06T20:11:38.789Z,25.10
2018-12-06T20:14:07.134Z,26.67
2018-12-06T20:16:35.552Z,23.77
2018-12-06T20:19:03.936Z,26.40
2018-12-06T20:21:32.509Z,24.93
2018-12-06T20:24:00.898Z,23.93
2018-12-06T20:26:29.686Z,28.40
2018-12-06T20:29:01.076Z,30.03
2018-12-06T20:31:30.083Z,26.20
2018-12-06T20:33:59.388Z,24.93
2018-12-06T20:36:27.961Z,25.40
2018-12-06T20:39:03.416Z,27.30
2018-12-06T20:41:33.969Z,24.47
2018-12-06T20:44:02.957Z,25.87
2018-12-06T20:46:31.400Z,26.53
2018-12-06T20:49:00.411Z,25.43
2018-12-06T20:51:28.827Z,26.43
2018-12-06T20:53:57.334Z,26.73
2018-12-06T20:56:26.041Z,22.60
2018-12-06T20:58:54.406Z,25.70
2018-12-06T21:01:22.979Z,27.97
2018-12-06T21:03:51.922Z,25.53
2018-12-06T21:06:20.218Z,23.87
2018-12-06T21:08:48.634Z,24.47
2018-12-06T21:11:17.736Z,24.43
2018-12-06T21:13:46.074Z,23.67
2018-12-06T21:16:14.440Z,22.93
2018-12-06T21:18:43.471Z,23.60
2018-12-06T21:21:11.897Z,22.13
2018-12-06T21:23:40.392Z,22.80
2018-12-06T21:26:08.950Z,22.80
2018-12-06T21:28:37.249Z,20.83
2018-12-06T21:31:05.664Z,22.27
2018-12-06T21:33:34.054Z,22.33
2018-12-06T21:36:02.370Z,21.67
2018-12-06T21:38:30.867Z,21.33
2018-12-06T21:40:59.228Z,21.43
2018-12-06T21:43:27.753Z,22.63
2018-12-06T21:45:56.094Z,22.03
2018-12-06T21:48:24.459Z,24.10
2018-12-06T21:50:52.816Z,22.97
2018-12-06T21:53:21.163Z,22.47
2018-12-06T21:55:49.858Z,22.97
2018-12-06T21:58:18.160Z,25.70
2018-12-06T22:00:46.563Z,24.87
2018-12-06T22:03:14.908Z,24.73
2018-12-06T22:05:43.211Z,27.03
2018-12-06T22:08:11.985Z,25.57
2018-12-06T22:10:40.296Z,26.90
2018-12-06T22:13:08.703Z,28.77
2018-12-06T22:15:37.316Z,28.30
2018-12-06T22:18:05.621Z,29.20
2018-12-06T22:20:34.064Z,29.60
2018-12-06T22:23:02.475Z,28.83
2018-12-06T22:25:30.785Z,31.20
2018-12-06T22:27:59.167Z,29.60
2018-12-06T22:30:27.467Z,29.93
2018-12-06T22:32:55.818Z,29.83
2018-12-06T22:35:24.492Z,32.57
2018-12-06T22:37:52.895Z,31.23
2018-12-06T22:40:21.208Z,27.90
2018-12-06T22:42:49.548Z,28.70
2018-12-06T22:48:32.949Z,28.47
2018-12-06T22:51:01.349Z,28.37
2018-12-06T22:53:30.264Z,26.63
2018-12-06T22:55:58.617Z,28.27
2018-12-06T22:58:27.034Z,29.13
2018-12-06T23:00:56.431Z,28.83
2018-12-06T23:03:25.033Z,32.87
2018-12-06T23:05:53.538Z,32.90
2018-12-06T23:08:21.965Z,30.10
2018-12-06T23:10:50.559Z,31.20
2018-12-06T23:13:18.881Z,31.00
2018-12-06T23:15:47.326Z,31.00
2018-12-06T23:18:15.631Z,32.57
2018-12-06T23:20:44.229Z,29.97
2018-12-06T23:23:12.805Z,32.17
2018-12-06T23:25:41.400Z,32.13
2018-12-06T23:28:09.858Z,33.87
2018-12-06T23:30:38.189Z,34.13
2018-12-06T23:33:06.633Z,31.37
2018-12-06T23:35:35.447Z,34.03
2018-12-06T23:38:03.834Z,32.90
2018-12-06T23:40:32.690Z,29.97
2018-12-06T23:43:01.017Z,35.47
2018-12-06T23:45:29.439Z,32.50
2018-12-06T23:47:58.522Z,35.27
2018-12-06T23:50:26.885Z,34.50
2018-12-06T23:52:55.591Z,30.13
2018-12-06T23:55:24.002Z,32.60
2018-12-06T23:57:52.485Z,32.33
